Time;durP1;ratioP1;P1;durP2;ratioP2;P2;SDS_P1;SDS_P2;PMS_P1;PMS_P2;Temp;Humidity;BMP_temperature;BMP_pressure;BME280_temperature;BME280_humidity;BME280_pressure;Samples;Min_cycle;Max_cycle;Signal;HPM_P1;HPM_P2
2023/12/15 00:01:24;;;;;;;1.38;0.63;;;;;;;8.44;84.34;99352.66;5051001;28;20397;-40
2023/12/15 00:03:50;;;;;;;3.58;0.70;;;;;;;8.31;84.33;99337.47;5050984;28;20028;-38
2023/12/15 00:06:15;;;;;;;1.30;0.75;;;;;;;8.55;84.06;99352.06;5051766;28;20044;-38
2023/12/15 00:08:41;;;;;;;0.82;0.60;;;;;;;8.48;84.60;99361.03;5051850;28;20024;-37
2023/12/15 00:11:06;;;;;;;0.77;0.65;;;;;;;8.49;84.33;99363.47;5051083;28;20116;-37
2023/12/15 00:13:32;;;;;;;0.52;0.52;;;;;;;8.38;84.48;99380.75;5050467;28;20099;-39
2023/12/15 00:15:57;;;;;;;1.35;0.80;;;;;;;8.49;84.58;99391.81;5051182;28;20029;-36
2023/12/15 00:18:22;;;;;;;2.80;0.80;;;;;;;8.41;84.34;99388.34;5051456;28;20021;-40
2023/12/15 00:20:48;;;;;;;1.45;0.70;;;;;;;8.56;83.63;99393.47;5052058;28;20052;-36
2023/12/15 00:23:14;;;;;;;0.40;0.35;;;;;;;8.56;83.45;99406.72;5051012;28;20032;-37
2023/12/15 00:25:39;;;;;;;0.63;0.60;;;;;;;8.47;83.60;99410.56;5051369;28;20389;-36
2023/12/15 00:28:05;;;;;;;1.75;0.95;;;;;;;8.61;83.25;99414.13;5051373;28;20082;-37
2023/12/15 00:30:30;;;;;;;1.08;0.70;;;;;;;8.59;83.48;99424.09;5051094;28;20029;-40
2023/12/15 00:32:56;;;;;;;1.33;0.65;;;;;;;8.82;81.92;99415.81;5050743;28;20105;-39
2023/12/15 00:35:21;;;;;;;1.73;0.70;;;;;;;8.76;81.62;99421.94;5051229;28;20111;-38
2023/12/15 00:37:47;;;;;;;0.82;0.60;;;;;;;8.87;81.89;99428.47;5051210;28;20033;-37
2023/12/15 00:40:12;;;;;;;1.35;0.60;;;;;;;8.85;81.33;99420.69;5051150;28;20031;-35
2023/12/15 00:42:38;;;;;;;2.05;0.60;;;;;;;8.60;81.91;99415.13;5050937;28;20024;-37
2023/12/15 00:45:03;;;;;;;0.50;0.45;;;;;;;8.61;82.20;99432.69;5050312;28;20024;-38
2023/12/15 00:47:29;;;;;;;0.55;0.55;;;;;;;8.53;82.41;99436.31;5050911;28;20033;-36
2023/12/15 00:49:54;;;;;;;0.77;0.50;;;;;;;8.76;81.41;99451.91;5050246;28;20064;-38
2023/12/15 00:52:19;;;;;;;0.73;0.50;;;;;;;8.69;81.38;99456.38;5050059;28;20104;-37
2023/12/15 00:54:45;;;;;;;0.95;0.60;;;;;;;8.75;81.39;99455.56;5050040;28;20044;-35
2023/12/15 00:57:10;;;;;;;0.82;0.50;;;;;;;8.60;81.57;99452.25;5049007;28;20120;-35
2023/12/15 00:59:36;;;;;;;1.65;0.70;;;;;;;8.64;81.20;99450.03;5050830;28;20381;-35
2023/12/15 01:02:01;;;;;;;3.40;0.50;;;;;;;8.73;81.32;99446.19;5050528;28;20025;-37
2023/12/15 01:04:27;;;;;;;0.55;0.40;;;;;;;8.86;80.64;99448.88;5049983;28;20082;-35
2023/12/15 01:06:52;;;;;;;0.60;0.45;;;;;;;8.68;80.79;99443.31;5050697;28;20544;-35
2023/12/15 01:09:18;;;;;;;1.17;0.70;;;;;;;8.65;81.24;99457.78;5050386;28;20035;-38
2023/12/15 01:11:43;;;;;;;0.60;0.52;;;;;;;8.72;80.32;99457.81;5050411;28;20029;-35
2023/12/15 01:14:08;;;;;;;0.85;0.50;;;;;;;8.63;80.48;99466.97;5050513;28;20108;-36
2023/12/15 01:16:34;;;;;;;0.82;0.40;;;;;;;8.88;80.33;99476.03;5050356;28;20037;-36
2023/12/15 01:18:59;;;;;;;0.75;0.63;;;;;;;8.55;82.11;99478.56;5050853;28;20151;-38
2023/12/15 01:21:24;;;;;;;1.85;0.40;;;;;;;8.79;80.82;99487.84;5050528;28;20033;-37
2023/12/15 01:23:50;;;;;;;0.65;0.50;;;;;;;8.77;80.58;99487.22;5050071;28;20024;-38
2023/12/15 01:26:15;;;;;;;2.08;0.43;;;;;;;8.61;80.89;99486.53;5053377;28;20473;-35
2023/12/15 01:28:41;;;;;;;1.90;0.70;;;;;;;8.50;81.35;99481.78;5054369;28;20044;-39
2023/12/15 01:31:06;;;;;;;1.42;0.40;;;;;;;8.78;80.28;99497.66;5053906;28;20118;-37
2023/12/15 01:33:32;;;;;;;0.77;0.50;;;;;;;8.75;80.33;99499.88;5053721;28;20126;-37
2023/12/15 01:35:57;;;;;;;0.55;0.35;;;;;;;8.65;80.87;99500.22;5054260;28;20024;-38
2023/12/15 01:38:23;;;;;;;0.93;0.52;;;;;;;8.78;80.93;99510.91;5054051;28;20028;-38
2023/12/15 01:40:48;;;;;;;0.73;0.45;;;;;;;8.74;81.31;99512.31;5054368;28;20021;-37
2023/12/15 01:43:14;;;;;;;0.35;0.35;;;;;;;8.78;81.15;99513.56;5054087;28;20032;-39
2023/12/15 01:45:39;;;;;;;0.40;0.38;;;;;;;9.00;79.39;99521.41;5054460;28;20029;-38
2023/12/15 01:48:06;;;;;;;0.57;0.45;;;;;;;8.84;80.73;99522.56;5053585;28;20090;-39
2023/12/15 01:50:32;;;;;;;0.68;0.28;;;;;;;8.55;81.48;99532.44;5053783;28;20033;-38
2023/12/15 01:52:57;;;;;;;0.68;0.38;;;;;;;8.71;81.33;99539.22;5053835;28;20031;-39
2023/12/15 01:55:23;;;;;;;0.30;0.30;;;;;;;8.36;82.04;99541.88;5054131;28;20025;-38
2023/12/15 01:57:48;;;;;;;1.45;0.50;;;;;;;8.52;81.67;99543.41;5053622;28;20035;-38
2023/12/15 02:00:13;;;;;;;3.08;0.43;;;;;;;8.61;81.26;99552.84;5053407;28;20113;-35
2023/12/15 02:02:39;;;;;;;0.63;0.40;;;;;;;8.60;81.23;99539.78;5053905;28;20029;-36
2023/12/15 02:05:05;;;;;;;0.47;0.38;;;;;;;8.56;80.96;99552.63;5053132;28;20465;-37
2023/12/15 02:07:30;;;;;;;0.43;0.40;;;;;;;8.57;81.51;99556.91;5053757;28;20103;-39
2023/12/15 02:09:58;;;;;;;0.88;0.47;;;;;;;8.82;80.58;99558.28;5053273;28;20155;-37
2023/12/15 02:12:23;;;;;;;0.90;0.60;;;;;;;8.73;81.12;99562.91;5052765;28;20029;-37
2023/12/15 02:14:48;;;;;;;0.50;0.40;;;;;;;8.63;82.09;99560.63;5052205;28;20035;-36
2023/12/15 02:17:14;;;;;;;0.73;0.40;;;;;;;8.70;81.57;99556.19;5052549;28;20540;-36
2023/12/15 02:19:39;;;;;;;0.73;0.50;;;;;;;8.82;82.00;99567.06;5052501;28;20021;-36
2023/12/15 02:22:05;;;;;;;0.63;0.47;;;;;;;8.78;81.44;99568.47;5052571;28;20029;-36
2023/12/15 02:24:30;;;;;;;0.43;0.30;;;;;;;8.47;82.40;99563.56;5052123;28;20382;-36
2023/12/15 02:26:56;;;;;;;0.40;0.32;;;;;;;8.47;82.85;99576.84;5052536;28;20021;-38
2023/12/15 02:29:21;;;;;;;0.40;0.40;;;;;;;8.34;83.54;99574.88;5053366;28;20060;-39
2023/12/15 02:31:47;;;;;;;0.50;0.45;;;;;;;8.54;83.42;99585.66;5053399;28;20024;-39
2023/12/15 02:34:12;;;;;;;0.65;0.40;;;;;;;8.47;82.64;99587.44;5053235;28;20152;-36
2023/12/15 02:36:38;;;;;;;0.45;0.35;;;;;;;8.60;82.59;99598.97;5052614;28;20036;-36
2023/12/15 02:39:03;;;;;;;2.58;0.55;;;;;;;8.79;82.41;99601.94;5053208;28;20028;-37
2023/12/15 02:41:30;;;;;;;0.63;0.30;;;;;;;8.77;82.03;99606.63;5052399;28;20480;-39
2023/12/15 02:43:55;;;;;;;0.75;0.30;;;;;;;8.50;82.66;99609.09;5052897;28;20025;-36
2023/12/15 02:46:21;;;;;;;1.33;0.47;;;;;;;8.63;83.20;99608.38;5034154;28;20106;-39
2023/12/15 02:48:46;;;;;;;0.73;0.45;;;;;;;8.72;83.20;99609.88;5049153;28;20159;-39
2023/12/15 02:51:11;;;;;;;0.63;0.40;;;;;;;8.88;82.27;99611.38;5052574;28;20033;-37
2023/12/15 02:53:37;;;;;;;0.90;0.50;;;;;;;8.72;82.45;99614.34;5052920;28;20032;-37
2023/12/15 02:56:03;;;;;;;0.90;0.50;;;;;;;8.63;82.83;99621.63;5052876;28;20037;-36
2023/12/15 02:58:29;;;;;;;1.88;0.70;;;;;;;8.38;83.33;99607.97;5046704;28;20028;-36
2023/12/15 03:00:54;;;;;;;0.60;0.45;;;;;;;8.56;82.80;99615.47;5052871;28;20017;-38
2023/12/15 03:03:19;;;;;;;0.82;0.40;;;;;;;8.72;82.16;99609.03;5052174;28;20039;-38
2023/12/15 03:05:45;;;;;;;2.50;0.60;;;;;;;8.80;81.26;99614.19;5052988;28;20033;-39
2023/12/15 03:08:10;;;;;;;0.40;0.40;;;;;;;8.56;81.99;99616.28;5052517;28;20456;-39
2023/12/15 03:10:36;;;;;;;1.45;0.60;;;;;;;8.50;82.32;99624.19;5052582;28;20041;-36
2023/12/15 03:13:01;;;;;;;0.68;0.50;;;;;;;8.72;81.96;99622.28;5052037;28;20029;-37
2023/12/15 03:15:27;;;;;;;0.90;0.60;;;;;;;8.84;81.59;99628.72;5052397;28;20102;-38
2023/12/15 03:17:52;;;;;;;1.45;0.80;;;;;;;9.14;79.36;99621.31;5052381;28;20039;-39
2023/12/15 03:20:18;;;;;;;1.40;0.30;;;;;;;8.73;81.38;99626.59;5052239;28;20115;-36
2023/12/15 03:22:44;;;;;;;0.52;0.40;;;;;;;8.45;82.56;99629.25;5051711;28;20066;-39
2023/12/15 03:25:10;;;;;;;0.63;0.40;;;;;;;8.55;82.09;99622.59;5052123;28;20404;-38
2023/12/15 03:27:35;;;;;;;1.02;0.60;;;;;;;8.44;82.84;99639.03;5052366;28;20041;-36
2023/12/15 03:30:00;;;;;;;1.80;0.70;;;;;;;8.71;82.04;99629.44;5051989;28;20094;-36
2023/12/15 03:32:26;;;;;;;1.95;0.60;;;;;;;8.95;80.73;99644.09;5051699;28;20459;-36
2023/12/15 03:34:51;;;;;;;1.38;0.68;;;;;;;8.82;81.24;99646.66;5051398;28;20051;-38
2023/12/15 03:37:17;;;;;;;1.00;0.70;;;;;;;8.59;81.51;99653.03;5051463;28;20048;-36
2023/12/15 03:39:42;;;;;;;2.72;0.55;;;;;;;8.39;84.35;99655.47;5051791;28;20477;-36
2023/12/15 03:42:08;;;;;;;0.70;0.43;;;;;;;8.21;84.98;99655.94;5051890;28;20025;-36
2023/12/15 03:44:33;;;;;;;1.50;0.80;;;;;;;8.27;85.98;99664.97;5051285;28;20029;-38
2023/12/15 03:47:00;;;;;;;1.02;0.60;;;;;;;8.34;85.78;99665.00;5051885;28;20029;-35
2023/12/15 03:49:25;;;;;;;1.00;0.63;;;;;;;8.27;86.88;99664.16;5051704;28;20033;-39
2023/12/15 03:51:50;;;;;;;0.63;0.60;;;;;;;8.55;85.82;99664.22;5051753;28;20060;-36
2023/12/15 03:54:16;;;;;;;0.80;0.63;;;;;;;8.38;86.54;99674.25;5051104;28;20040;-39
2023/12/15 03:56:41;;;;;;;0.75;0.70;;;;;;;8.34;86.72;99679.13;5051196;28;20079;-38
2023/12/15 03:59:06;;;;;;;1.67;0.80;;;;;;;8.36;86.95;99677.09;5051490;28;20033;-40
2023/12/15 04:01:32;;;;;;;0.68;0.63;;;;;;;8.10;90.78;99688.25;5051488;28;20029;-40
2023/12/15 04:03:58;;;;;;;2.33;0.70;;;;;;;7.96;92.13;99686.50;5051284;28;20028;-40
2023/12/15 04:06:24;;;;;;;0.85;0.60;;;;;;;8.15;92.08;99683.22;5051028;28;20104;-39
2023/12/15 04:08:49;;;;;;;0.68;0.50;;;;;;;8.10;90.79;99696.22;5051376;28;20478;-39
2023/12/15 04:11:16;;;;;;;3.78;1.05;;;;;;;8.23;89.81;99693.69;5050911;28;20029;-38
2023/12/15 04:13:41;;;;;;;2.10;1.10;;;;;;;8.20;90.68;99707.31;5050914;28;20033;-38
2023/12/15 04:16:07;;;;;;;1.00;0.70;;;;;;;8.14;91.15;99702.78;5050865;28;20032;-38
2023/12/15 04:18:33;;;;;;;1.55;1.00;;;;;;;7.96;91.31;99694.44;5051027;28;20024;-38
2023/12/15 04:20:59;;;;;;;1.02;0.80;;;;;;;8.64;89.26;99692.22;5051070;28;20071;-39
2023/12/15 04:23:24;;;;;;;1.77;1.00;;;;;;;8.55;90.30;99704.03;5050536;28;20017;-38
2023/12/15 04:25:49;;;;;;;1.20;0.90;;;;;;;8.45;90.84;99693.72;5051455;28;20028;-39
2023/12/15 04:28:15;;;;;;;5.25;1.10;;;;;;;8.35;90.95;99704.59;5051034;28;20079;-36
2023/12/15 04:30:40;;;;;;;1.65;0.85;;;;;;;8.32;91.91;99710.31;5050894;28;20362;-39
2023/12/15 04:33:06;;;;;;;2.17;1.33;;;;;;;8.37;89.88;99701.78;5047497;28;20046;-37
2023/12/15 04:35:31;;;;;;;3.83;1.95;;;;;;;8.14;89.93;99710.72;5050122;28;20052;-38
2023/12/15 04:37:56;;;;;;;3.92;2.13;;;;;;;8.06;90.70;99713.50;5050461;28;20025;-40
2023/12/15 04:40:22;;;;;;;2.25;1.63;;;;;;;8.39;89.43;99708.50;5050450;28;20025;-39
2023/12/15 04:42:47;;;;;;;3.63;1.65;;;;;;;8.12;90.50;99720.69;5049288;28;20447;-39
2023/12/15 04:45:13;;;;;;;1.63;1.13;;;;;;;8.18;90.63;99719.94;5051035;28;20025;-37
2023/12/15 04:47:38;;;;;;;3.10;1.20;;;;;;;8.53;88.48;99725.41;5050839;28;20441;-37
2023/12/15 04:50:04;;;;;;;1.67;1.38;;;;;;;8.44;88.52;99723.91;5050902;28;20021;-36
2023/12/15 04:52:29;;;;;;;1.40;1.00;;;;;;;8.28;89.34;99738.22;5050092;28;20496;-39
2023/12/15 04:54:55;;;;;;;1.67;1.13;;;;;;;8.32;90.04;99739.47;5049945;28;20436;-39
2023/12/15 04:57:20;;;;;;;2.65;1.42;;;;;;;8.48;89.89;99734.97;5047488;28;20056;-39
2023/12/15 04:59:45;;;;;;;2.38;1.38;;;;;;;8.45;88.76;99744.09;5051245;28;20098;-36
2023/12/15 05:02:10;;;;;;;3.45;2.45;;;;;;;9.05;92.72;99757.06;5053784;28;20104;-39
2023/12/15 05:04:36;;;;;;;2.35;1.50;;;;;;;8.89;86.76;99752.84;5037743;28;20049;-39
2023/12/15 05:07:02;;;;;;;4.07;1.55;;;;;;;8.52;87.78;99762.75;5061522;28;20036;-38
2023/12/15 05:09:28;;;;;;;2.65;1.40;;;;;;;8.53;87.78;99772.31;5053870;28;20029;-40
2023/12/15 05:11:53;;;;;;;1.95;1.40;;;;;;;8.57;86.94;99785.03;5053364;28;20082;-38
2023/12/15 05:14:19;;;;;;;3.22;1.40;;;;;;;8.82;86.18;99803.22;5035168;28;20407;-40
2023/12/15 05:16:44;;;;;;;1.98;1.42;;;;;;;8.54;87.11;99784.59;5035204;28;20017;-37
2023/12/15 05:19:10;;;;;;;2.90;1.65;;;;;;;8.34;87.82;99787.00;5034949;28;20021;-39
2023/12/15 05:21:35;;;;;;;2.28;1.60;;;;;;;8.27;88.04;99794.88;5054790;28;20086;-37
2023/12/15 05:24:01;;;;;;;2.40;1.70;;;;;;;8.30;88.61;99789.22;5054745;28;20044;-39
2023/12/15 05:26:26;;;;;;;5.50;2.40;;;;;;;8.05;89.74;99774.66;5054778;28;20078;-41
2023/12/15 05:28:52;;;;;;;4.55;2.63;;;;;;;8.26;89.64;99782.63;5054907;28;20029;-41
2023/12/15 05:31:18;;;;;;;3.45;2.22;;;;;;;8.33;89.16;99783.53;5054745;28;20021;-40
2023/12/15 05:33:43;;;;;;;2.40;1.85;;;;;;;8.41;89.18;99790.53;5054035;28;20048;-40
2023/12/15 05:36:17;;;;;;;2.63;1.83;;;;;;;8.16;90.29;99790.88;5054416;28;20013;-38
2023/12/15 05:38:43;;;;;;;3.60;1.85;;;;;;;8.26;89.16;99787.13;5054225;28;20028;-41
2023/12/15 05:41:08;;;;;;;3.65;2.20;;;;;;;8.10;90.94;99804.88;5054395;28;20420;-39
2023/12/15 05:43:34;;;;;;;5.57;2.80;;;;;;;8.18;90.82;99812.72;5054261;28;20023;-39
2023/12/15 05:45:59;;;;;;;4.03;2.63;;;;;;;8.78;87.68;99812.59;5054229;28;20488;-43
2023/12/15 05:48:24;;;;;;;5.22;2.50;;;;;;;8.62;88.25;99800.38;5054395;28;20512;-36
2023/12/15 05:50:50;;;;;;;4.18;2.80;;;;;;;8.57;88.66;99808.09;5052829;28;20071;-42
2023/12/15 05:53:15;;;;;;;4.47;3.00;;;;;;;8.47;88.34;99803.06;5054805;28;20096;-38
2023/12/15 05:55:40;;;;;;;4.65;2.90;;;;;;;8.36;89.45;99803.56;5053699;28;20429;-39
2023/12/15 05:58:06;;;;;;;6.88;3.83;;;;;;;8.37;89.45;99811.31;5054235;28;20036;-40
2023/12/15 06:00:31;;;;;;;5.72;2.95;;;;;;;8.33;89.78;99830.44;5054644;28;20025;-40
2023/12/15 06:02:56;;;;;;;3.40;2.55;;;;;;;8.40;89.34;99831.34;5054333;28;20429;-40
2023/12/15 06:05:22;;;;;;;3.63;2.28;;;;;;;8.37;89.54;99837.00;5054296;28;20106;-38
2023/12/15 06:07:47;;;;;;;4.07;2.10;;;;;;;8.44;89.79;99834.47;5054229;28;20032;-39
2023/12/15 06:10:12;;;;;;;2.70;1.95;;;;;;;8.43;90.25;99820.38;5053880;28;20117;-39
2023/12/15 06:12:38;;;;;;;3.58;2.45;;;;;;;8.53;89.63;99830.69;5052989;28;20035;-39
2023/12/15 06:15:06;;;;;;;4.28;2.50;;;;;;;8.57;89.44;99830.13;5054005;28;20025;-36
2023/12/15 06:17:31;;;;;;;3.55;2.35;;;;;;;8.70;89.07;99847.19;5053025;28;20362;-40
2023/12/15 06:19:57;;;;;;;3.60;2.20;;;;;;;8.72;88.72;99840.69;5053308;28;20036;-39
2023/12/15 06:22:22;;;;;;;3.60;2.35;;;;;;;8.55;89.66;99852.56;5053163;28;20349;-37
2023/12/15 06:24:47;;;;;;;3.25;2.28;;;;;;;8.45;90.34;99862.63;5053107;28;20036;-38
2023/12/15 06:27:13;;;;;;;2.92;2.00;;;;;;;8.44;90.00;99864.47;5052172;28;20086;-38
2023/12/15 06:29:40;;;;;;;2.30;1.70;;;;;;;8.47;90.73;99863.25;5052771;28;20098;-40
2023/12/15 06:32:06;;;;;;;1.75;1.50;;;;;;;8.52;90.63;99863.53;5053856;28;20044;-40
2023/12/15 06:34:32;;;;;;;4.10;1.70;;;;;;;8.67;89.46;99868.81;5053899;28;20032;-40
2023/12/15 06:36:57;;;;;;;3.67;1.98;;;;;;;8.68;90.29;99871.28;5053773;28;20036;-39
2023/12/15 06:39:22;;;;;;;4.40;1.80;;;;;;;8.49;91.00;99879.81;5053710;28;20029;-40
2023/12/15 06:41:48;;;;;;;3.85;2.20;;;;;;;8.45;91.51;99887.31;5053682;28;20385;-38
2023/12/15 06:44:13;;;;;;;3.67;2.45;;;;;;;8.16;93.70;99883.66;5053155;28;20025;-39
2023/12/15 06:46:39;;;;;;;5.03;2.70;;;;;;;8.33;93.23;99878.97;5052823;28;20021;-40
2023/12/15 06:49:05;;;;;;;4.90;2.65;;;;;;;8.46;92.46;99881.00;5052799;28;20040;-37
2023/12/15 06:51:30;;;;;;;4.55;3.10;;;;;;;8.47;91.93;99885.28;5052697;28;20407;-39
2023/12/15 06:53:55;;;;;;;5.13;3.25;;;;;;;8.24;93.26;99885.38;5052767;28;20040;-41
2023/12/15 06:56:21;;;;;;;5.25;3.20;;;;;;;8.33;94.64;99896.72;5052747;28;20459;-38
2023/12/15 06:58:46;;;;;;;6.32;2.70;;;;;;;8.36;94.54;99905.16;5052589;28;20029;-38
2023/12/15 07:01:13;;;;;;;5.97;3.50;;;;;;;8.40;93.92;99911.72;5050990;28;20025;-40
2023/12/15 07:03:39;;;;;;;7.53;3.67;;;;;;;8.32;94.98;99909.19;5050778;28;20112;-39
2023/12/15 07:06:05;;;;;;;6.60;4.10;;;;;;;8.43;94.14;99913.19;5050863;28;20107;-39
2023/12/15 07:08:30;;;;;;;8.38;4.70;;;;;;;8.23;95.34;99916.41;5051480;28;20094;-40
2023/12/15 07:10:55;;;;;;;8.82;5.50;;;;;;;8.31;95.31;99926.06;5051423;28;20025;-39
2023/12/15 07:13:21;;;;;;;33.20;15.35;;;;;;;8.30;94.74;99924.44;5051570;28;20036;-39
2023/12/15 07:15:46;;;;;;;21.70;9.30;;;;;;;8.20;95.72;99924.69;5051992;28;20495;-38
2023/12/15 07:18:12;;;;;;;8.68;4.60;;;;;;;8.27;94.82;99924.81;5051016;28;20025;-39
2023/12/15 07:20:37;;;;;;;8.55;4.80;;;;;;;8.24;94.77;99933.13;5052457;28;20027;-39
2023/12/15 07:23:02;;;;;;;6.50;4.32;;;;;;;8.38;93.80;99928.84;5050310;28;20488;-40
2023/12/15 07:25:28;;;;;;;5.95;4.05;;;;;;;8.24;93.95;99927.81;5052315;28;20025;-38
2023/12/15 07:27:53;;;;;;;8.20;4.50;;;;;;;8.22;94.59;99930.66;5051967;28;20029;-39
2023/12/15 07:30:20;;;;;;;7.75;4.38;;;;;;;8.17;94.39;99941.00;5051960;28;20117;-38
2023/12/15 07:32:46;;;;;;;6.68;4.07;;;;;;;8.15;95.08;99942.19;5051602;28;20049;-37
2023/12/15 07:35:11;;;;;;;6.45;3.60;;;;;;;8.09;94.41;99949.03;5051632;28;20497;-39
2023/12/15 07:37:37;;;;;;;5.05;3.55;;;;;;;8.16;93.77;99957.06;5051249;28;20029;-40
2023/12/15 07:40:03;;;;;;;76.30;25.25;;;;;;;8.19;94.29;99965.50;5051688;28;20331;-40
2023/12/15 07:42:29;;;;;;;95.93;29.45;;;;;;;8.19;94.28;99964.69;5051852;28;20024;-39
2023/12/15 07:44:55;;;;;;;70.63;23.50;;;;;;;8.02;94.34;99970.13;5051444;28;20475;-41
2023/12/15 07:47:20;;;;;;;19.15;6.97;;;;;;;7.91;94.53;99961.81;5051310;28;20086;-36
2023/12/15 07:49:45;;;;;;;6.45;3.67;;;;;;;8.10;93.81;99973.72;5051046;28;20040;-39
2023/12/15 07:52:11;;;;;;;4.45;3.25;;;;;;;8.29;93.30;99977.66;5051076;28;20104;-39
2023/12/15 07:54:36;;;;;;;4.97;3.55;;;;;;;8.19;93.02;99986.69;5051225;28;20028;-39
2023/12/15 07:57:02;;;;;;;6.82;3.83;;;;;;;8.29;92.17;99986.44;5051395;28;20021;-39
2023/12/15 07:59:27;;;;;;;7.28;3.90;;;;;;;8.20;93.01;99977.72;5051063;28;20029;-38
2023/12/15 08:01:55;;;;;;;6.78;3.55;;;;;;;8.24;92.70;99988.78;5051221;28;20040;-38
2023/12/15 08:04:20;;;;;;;6.70;3.97;;;;;;;8.25;92.81;100008.19;5051350;28;20087;-37
2023/12/15 08:06:46;;;;;;;6.80;4.30;;;;;;;8.20;92.66;100000.78;5051211;28;20036;-40
2023/12/15 08:09:11;;;;;;;5.70;3.85;;;;;;;8.10;94.54;100014.28;5051597;28;20460;-39
2023/12/15 08:11:37;;;;;;;4.93;3.47;;;;;;;8.14;94.35;100020.88;5051294;28;20025;-39
2023/12/15 08:14:03;;;;;;;5.20;3.47;;;;;;;8.15;93.83;100021.72;5050952;28;20025;-39
2023/12/15 08:16:31;;;;;;;6.53;3.50;;;;;;;8.27;93.33;100022.91;5051206;28;20033;-39
2023/12/15 08:18:57;;;;;;;6.47;3.95;;;;;;;8.34;92.88;100028.28;5051198;28;20103;-39
2023/12/15 08:21:23;;;;;;;5.53;3.47;;;;;;;8.22;93.14;100039.38;5051096;28;20092;-37
2023/12/15 08:23:48;;;;;;;4.95;3.60;;;;;;;8.31;92.79;100048.06;5051064;28;20462;-39
2023/12/15 08:26:23;;;;;;;5.55;3.40;;;;;;;8.10;93.92;100054.06;5051057;28;20451;-41
2023/12/15 08:28:48;;;;;;;4.45;3.35;;;;;;;8.11;93.91;100049.56;5051183;28;20029;-38
2023/12/15 08:31:14;;;;;;;7.05;3.65;;;;;;;7.94;95.48;100056.84;5050762;28;20067;-39
2023/12/15 08:33:39;;;;;;;4.53;3.30;;;;;;;7.97;96.15;100053.84;5043610;28;20441;-41
2023/12/15 08:36:05;;;;;;;5.25;3.80;;;;;;;7.97;95.10;100059.13;5047162;28;20416;-38
2023/12/15 08:38:30;;;;;;;6.22;3.65;;;;;;;7.85;96.15;100061.41;5048916;28;20029;-37
2023/12/15 08:40:56;;;;;;;6.15;3.90;;;;;;;7.89;95.89;100057.38;5048551;28;20052;-37
2023/12/15 08:43:21;;;;;;;4.65;3.47;;;;;;;7.92;96.39;100074.75;5045261;28;20043;-39
2023/12/15 08:45:47;;;;;;;6.30;3.65;;;;;;;7.78;97.63;100079.81;5050095;28;20438;-40
2023/12/15 08:48:12;;;;;;;5.30;3.55;;;;;;;7.90;97.57;100076.75;5046112;28;20151;-41
2023/12/15 08:50:37;;;;;;;5.63;3.75;;;;;;;7.93;97.28;100079.06;5049098;28;20025;-41
2023/12/15 08:53:03;;;;;;;6.40;3.85;;;;;;;7.79;98.35;100093.91;5047614;28;20086;-37
2023/12/15 08:55:28;;;;;;;5.20;3.95;;;;;;;7.72;99.23;100103.56;5048005;28;20070;-40
2023/12/15 08:57:53;;;;;;;7.07;4.00;;;;;;;7.74;99.01;100089.13;5049517;28;20017;-38
2023/12/15 09:00:19;;;;;;;6.20;3.80;;;;;;;7.82;98.34;100098.84;5047637;28;20349;-41
2023/12/15 09:02:45;;;;;;;5.97;4.38;;;;;;;7.88;98.88;100098.16;5046302;28;20027;-40
2023/12/15 09:05:10;;;;;;;5.68;4.15;;;;;;;7.62;99.62;100104.59;5049792;28;20495;-37
2023/12/15 09:07:36;;;;;;;7.30;4.45;;;;;;;7.54;100.00;100086.13;5047378;28;20384;-40
2023/12/15 09:10:02;;;;;;;6.90;4.70;;;;;;;7.97;100.00;100093.59;5048635;28;20052;-40
2023/12/15 09:12:27;;;;;;;7.03;4.45;;;;;;;8.34;98.43;100091.94;5049569;28;20138;-40
2023/12/15 09:14:53;;;;;;;8.68;4.93;;;;;;;8.39;97.78;100095.69;5050524;28;20035;-38
2023/12/15 09:17:18;;;;;;;7.13;4.82;;;;;;;8.77;95.15;100097.50;5050585;28;20550;-38
2023/12/15 09:19:43;;;;;;;6.97;4.75;;;;;;;8.89;93.49;100103.19;5050367;28;20112;-39
2023/12/15 09:22:09;;;;;;;7.80;4.20;;;;;;;8.85;93.62;100100.06;5050448;28;20443;-41
2023/12/15 09:24:34;;;;;;;6.55;4.18;;;;;;;9.05;92.48;100104.84;5049950;28;20067;-39
2023/12/15 09:27:00;;;;;;;8.55;4.38;;;;;;;9.17;91.92;100103.34;5050012;28;20104;-40
2023/12/15 09:29:25;;;;;;;4.90;3.60;;;;;;;8.91;93.24;100107.31;5050101;28;20029;-38
2023/12/15 09:31:51;;;;;;;5.32;4.00;;;;;;;8.90;93.11;100097.69;5050405;28;20044;-41
2023/12/15 09:34:17;;;;;;;4.95;3.60;;;;;;;8.96;93.21;100106.75;5050417;28;20060;-40
2023/12/15 09:36:43;;;;;;;6.50;3.65;;;;;;;8.59;94.74;100101.34;5049846;28;20032;-42
2023/12/15 09:39:08;;;;;;;6.18;3.30;;;;;;;8.76;94.31;100106.50;5050176;28;20051;-40
2023/12/15 09:41:34;;;;;;;5.13;3.80;;;;;;;9.15;92.00;100108.00;5050338;28;20014;-39
2023/12/15 09:44:00;;;;;;;7.03;3.80;;;;;;;9.39;91.21;100102.38;5050227;28;20382;-40
2023/12/15 09:46:25;;;;;;;5.15;3.33;;;;;;;9.26;90.17;100096.91;5052228;28;20029;-37
2023/12/15 09:48:51;;;;;;;8.18;3.47;;;;;;;9.04;91.77;100104.00;5053625;28;20510;-40
2023/12/15 09:51:25;;;;;;;6.53;4.22;;;;;;;8.96;93.16;100102.25;5053728;28;20024;-40
2023/12/15 09:53:51;;;;;;;5.85;3.42;;;;;;;9.13;90.99;100110.03;5053810;28;20021;-40
2023/12/15 09:56:18;;;;;;;4.50;3.30;;;;;;;8.74;92.56;100111.16;5054107;28;20374;-41
2023/12/15 09:58:44;;;;;;;4.43;3.22;;;;;;;9.07;91.41;100110.78;5053977;28;20032;-40
2023/12/15 10:01:12;;;;;;;4.80;3.15;;;;;;;9.05;90.99;100108.31;5053943;28;20496;-40
2023/12/15 10:03:39;;;;;;;3.83;3.00;;;;;;;8.89;91.49;100104.03;5053831;28;20043;-40
2023/12/15 10:06:05;;;;;;;4.32;3.40;;;;;;;9.22;90.55;100106.28;5053749;28;20028;-39
2023/12/15 10:08:44;;;;;;;5.93;3.63;;;;;;;9.12;89.27;100122.50;5052267;28;20021;-41
2023/12/15 10:11:10;;;;;;;6.25;3.67;;;;;;;9.26;87.86;100117.34;5053278;28;20017;-38
2023/12/15 10:13:39;;;;;;;4.70;3.50;;;;;;;9.17;88.82;100121.94;5053431;28;20393;-42
2023/12/15 10:16:05;;;;;;;5.07;3.35;;;;;;;8.93;88.45;100128.34;5053831;28;20031;-40
2023/12/15 10:18:31;;;;;;;4.78;2.90;;;;;;;8.85;88.99;100131.09;5053905;28;20400;-41
2023/12/15 10:20:56;;;;;;;5.63;3.10;;;;;;;8.49;89.53;100135.28;5053607;28;20523;-41
2023/12/15 10:23:29;;;;;;;6.47;3.20;;;;;;;8.49;89.44;100137.09;5053672;28;20032;-40
2023/12/15 10:25:57;;;;;;;4.68;3.17;;;;;;;8.30;90.04;100122.47;5053792;28;20024;-41
2023/12/15 10:28:23;;;;;;;5.00;3.40;;;;;;;8.73;88.60;100141.34;5053759;28;20048;-42
2023/12/15 10:30:51;;;;;;;5.63;3.33;;;;;;;8.65;88.68;100139.59;5053369;28;20056;-38
2023/12/15 10:33:18;;;;;;;5.15;3.50;;;;;;;8.56;89.52;100135.38;5053243;28;20148;-40
2023/12/15 10:35:47;;;;;;;4.90;3.28;;;;;;;8.50;88.83;100146.72;5053560;28;20082;-41
2023/12/15 10:38:14;;;;;;;5.13;3.60;;;;;;;8.70;88.62;100150.50;5053059;28;20021;-38
2023/12/15 10:40:41;;;;;;;5.32;3.50;;;;;;;8.46;88.30;100151.53;5053332;28;20078;-39
2023/12/15 10:43:09;;;;;;;6.90;3.70;;;;;;;8.39;88.99;100153.22;5053117;28;20090;-40
2023/12/15 10:45:35;;;;;;;5.80;3.65;;;;;;;8.23;89.32;100165.63;5053323;28;20097;-38
2023/12/15 10:48:01;;;;;;;4.72;3.20;;;;;;;7.90;90.88;100165.03;5053150;28;20049;-39
2023/12/15 10:50:28;;;;;;;4.40;3.10;;;;;;;8.14;90.27;100160.56;5052684;28;20021;-42
2023/12/15 10:52:53;;;;;;;5.18;3.60;;;;;;;8.71;87.11;100164.59;5052663;28;20236;-37
2023/12/15 10:55:23;;;;;;;5.45;2.85;;;;;;;8.07;88.03;100167.56;5052879;28;20500;-39
2023/12/15 10:57:49;;;;;;;4.25;2.83;;;;;;;7.60;90.93;100174.66;5051820;28;20481;-40
2023/12/15 11:00:17;;;;;;;5.15;2.70;;;;;;;7.76;91.04;100176.38;5052973;28;20024;-40
2023/12/15 11:02:44;;;;;;;4.18;2.60;;;;;;;7.80;89.80;100185.63;5052599;28;20025;-41
2023/12/15 11:05:11;;;;;;;4.68;2.90;;;;;;;7.90;89.91;100180.94;5052742;28;20032;-40
2023/12/15 11:07:37;;;;;;;3.95;2.65;;;;;;;7.94;88.82;100171.63;5052812;28;20103;-39
2023/12/15 11:10:03;;;;;;;4.13;2.92;;;;;;;8.01;88.39;100171.75;5052094;28;20032;-37
2023/12/15 11:12:33;;;;;;;4.68;2.75;;;;;;;7.75;88.43;100178.22;5052139;28;20025;-39
2023/12/15 11:15:06;;;;;;;4.70;2.50;;;;;;;7.60;89.41;100186.06;5052587;28;20409;-39
2023/12/15 11:17:33;;;;;;;4.47;2.80;;;;;;;7.44;89.95;100186.97;5052224;28;20402;-39
2023/12/15 11:20:10;;;;;;;4.35;2.70;;;;;;;7.76;88.48;100210.81;5052237;28;20017;-40
2023/12/15 11:22:58;;;;;;;4.68;2.63;;;;;;;7.49;88.95;100191.75;5052258;28;20025;-40
2023/12/15 11:25:35;;;;;;;3.78;2.70;;;;;;;7.79;87.60;100179.50;5052215;28;20035;-40
2023/12/15 11:28:01;;;;;;;4.13;2.40;;;;;;;7.61;88.55;100186.88;5052148;28;20559;-40
2023/12/15 11:30:30;;;;;;;3.80;2.70;;;;;;;7.97;86.71;100189.81;5052273;28;20071;-42
2023/12/15 11:32:55;;;;;;;3.15;2.28;;;;;;;7.73;86.79;100198.75;5051977;28;20568;-40